Weather at Bern Belp Airport

Public forecast

Using degrees Celsius for public forecast. Weather courtesy of forecast.io.

Current aviation weather report (METAR) for Bern Belp Airport

Retrieved 2021/01/23 21:20 UTC (19 minutes ago):

LSZB 232120Z AUTO 24006KT 180V310 9999 SCT017 SCT019 03/01 Q0995 RERASN

Closest aviation forecast (TAF) to Bern Belp Airport

Closest forecast is Payerne Air Base, 24.3 nm (44.9 km) W. Retrieved 2021/01/23 17:00 UTC (5 hours ago):

TAF LSMP 231625Z 2317/2423 22010KT 9999 BKN020 BKN035 TEMPO 2317/2324 RA PROB40 TEMPO 2318/2322 4500 RASN OVC014 BECMG 2400/2403 VRB02KT BECMG 2419/2422 22010KT 4000 SNRA OVC014